sensor_id;sensor_type;location;lat;lon;timestamp;P1;durP1;ratioP1;P2;durP2;ratioP2
72065;SDS011;59939;52.516;13.420;2023-06-10T00:00:41;16.55;;;6.00;;
72065;SDS011;59939;52.516;13.420;2023-06-10T00:03:45;19.20;;;5.72;;
72065;SDS011;59939;52.516;13.420;2023-06-10T00:06:49;15.73;;;5.95;;
72065;SDS011;59939;52.516;13.420;2023-06-10T00:10:08;20.92;;;5.90;;
72065;SDS011;59939;52.516;13.420;2023-06-10T00:13:12;18.05;;;5.53;;
72065;SDS011;59939;52.516;13.420;2023-06-10T00:16:16;17.30;;;5.63;;
72065;SDS011;59939;52.516;13.420;2023-06-10T00:19:22;15.68;;;6.10;;
72065;SDS011;59939;52.516;13.420;2023-06-10T00:22:29;15.52;;;5.32;;
72065;SDS011;59939;52.516;13.420;2023-06-10T00:25:39;17.15;;;5.97;;
72065;SDS011;59939;52.516;13.420;2023-06-10T00:28:57;18.38;;;6.55;;
72065;SDS011;59939;52.516;13.420;2023-06-10T00:32:01;17.48;;;6.32;;
72065;SDS011;59939;52.516;13.420;2023-06-10T00:35:05;22.15;;;7.13;;
72065;SDS011;59939;52.516;13.420;2023-06-10T00:38:10;16.55;;;5.82;;
72065;SDS011;59939;52.516;13.420;2023-06-10T00:41:15;18.73;;;6.03;;
72065;SDS011;59939;52.516;13.420;2023-06-10T00:44:24;17.20;;;6.28;;
72065;SDS011;59939;52.516;13.420;2023-06-10T00:47:30;18.75;;;6.38;;
72065;SDS011;59939;52.516;13.420;2023-06-10T00:50:37;16.95;;;5.78;;
72065;SDS011;59939;52.516;13.420;2023-06-10T00:53:44;21.35;;;7.32;;
72065;SDS011;59939;52.516;13.420;2023-06-10T00:56:50;19.35;;;6.50;;
72065;SDS011;59939;52.516;13.420;2023-06-10T00:59:57;18.25;;;5.82;;
72065;SDS011;59939;52.516;13.420;2023-06-10T01:03:01;14.85;;;5.65;;
72065;SDS011;59939;52.516;13.420;2023-06-10T01:06:11;16.35;;;5.95;;
72065;SDS011;59939;52.516;13.420;2023-06-10T01:09:25;17.70;;;5.78;;
72065;SDS011;59939;52.516;13.420;2023-06-10T01:15:37;18.90;;;7.13;;
72065;SDS011;59939;52.516;13.420;2023-06-10T01:18:42;24.33;;;6.57;;
72065;SDS011;59939;52.516;13.420;2023-06-10T01:21:46;23.70;;;6.35;;
72065;SDS011;59939;52.516;13.420;2023-06-10T01:24:55;17.70;;;5.65;;
72065;SDS011;59939;52.516;13.420;2023-06-10T01:28:04;21.88;;;6.70;;
72065;SDS011;59939;52.516;13.420;2023-06-10T01:31:18;20.33;;;6.30;;
72065;SDS011;59939;52.516;13.420;2023-06-10T01:34:25;16.25;;;5.93;;
72065;SDS011;59939;52.516;13.420;2023-06-10T01:37:30;18.00;;;6.30;;
72065;SDS011;59939;52.516;13.420;2023-06-10T01:40:34;20.20;;;6.75;;
72065;SDS011;59939;52.516;13.420;2023-06-10T01:43:39;20.13;;;6.82;;
72065;SDS011;59939;52.516;13.420;2023-06-10T01:46:50;26.05;;;7.88;;
72065;SDS011;59939;52.516;13.420;2023-06-10T01:49:54;21.67;;;6.90;;
72065;SDS011;59939;52.516;13.420;2023-06-10T01:52:59;19.27;;;6.90;;
72065;SDS011;59939;52.516;13.420;2023-06-10T01:56:05;18.13;;;6.53;;
72065;SDS011;59939;52.516;13.420;2023-06-10T01:59:09;17.02;;;7.78;;
72065;SDS011;59939;52.516;13.420;2023-06-10T02:02:13;18.55;;;6.07;;
72065;SDS011;59939;52.516;13.420;2023-06-10T02:05:21;18.05;;;6.78;;
72065;SDS011;59939;52.516;13.420;2023-06-10T02:08:25;18.70;;;7.10;;
72065;SDS011;59939;52.516;13.420;2023-06-10T02:11:31;20.48;;;7.20;;
72065;SDS011;59939;52.516;13.420;2023-06-10T02:14:35;21.00;;;7.38;;
72065;SDS011;59939;52.516;13.420;2023-06-10T02:17:40;17.60;;;6.50;;
72065;SDS011;59939;52.516;13.420;2023-06-10T02:20:44;18.48;;;8.18;;
72065;SDS011;59939;52.516;13.420;2023-06-10T02:23:48;20.63;;;6.75;;
72065;SDS011;59939;52.516;13.420;2023-06-10T02:26:53;21.38;;;7.10;;
72065;SDS011;59939;52.516;13.420;2023-06-10T02:29:58;20.58;;;7.47;;
72065;SDS011;59939;52.516;13.420;2023-06-10T02:33:02;21.02;;;6.88;;
72065;SDS011;59939;52.516;13.420;2023-06-10T02:36:06;25.35;;;7.80;;
72065;SDS011;59939;52.516;13.420;2023-06-10T02:39:11;21.65;;;7.45;;
72065;SDS011;59939;52.516;13.420;2023-06-10T02:42:15;24.88;;;6.88;;
72065;SDS011;59939;52.516;13.420;2023-06-10T02:45:19;21.05;;;7.32;;
72065;SDS011;59939;52.516;13.420;2023-06-10T02:48:23;19.92;;;6.75;;
72065;SDS011;59939;52.516;13.420;2023-06-10T02:51:27;23.67;;;7.15;;
72065;SDS011;59939;52.516;13.420;2023-06-10T02:54:36;20.58;;;7.05;;
72065;SDS011;59939;52.516;13.420;2023-06-10T02:57:43;20.52;;;8.23;;
72065;SDS011;59939;52.516;13.420;2023-06-10T03:00:47;16.80;;;7.05;;
72065;SDS011;59939;52.516;13.420;2023-06-10T03:03:51;19.35;;;7.20;;
72065;SDS011;59939;52.516;13.420;2023-06-10T03:06:56;19.73;;;7.63;;
72065;SDS011;59939;52.516;13.420;2023-06-10T03:10:06;25.58;;;8.70;;
72065;SDS011;59939;52.516;13.420;2023-06-10T03:13:11;20.98;;;7.85;;
72065;SDS011;59939;52.516;13.420;2023-06-10T03:16:16;21.17;;;7.43;;
72065;SDS011;59939;52.516;13.420;2023-06-10T03:19:21;22.00;;;7.80;;
72065;SDS011;59939;52.516;13.420;2023-06-10T03:22:27;20.17;;;7.78;;
72065;SDS011;59939;52.516;13.420;2023-06-10T03:25:39;20.77;;;8.50;;
72065;SDS011;59939;52.516;13.420;2023-06-10T03:28:43;25.23;;;7.45;;
72065;SDS011;59939;52.516;13.420;2023-06-10T03:31:47;25.20;;;7.20;;
72065;SDS011;59939;52.516;13.420;2023-06-10T03:34:51;19.48;;;7.70;;
72065;SDS011;59939;52.516;13.420;2023-06-10T03:38:04;20.30;;;7.65;;
72065;SDS011;59939;52.516;13.420;2023-06-10T03:41:09;20.30;;;7.85;;
72065;SDS011;59939;52.516;13.420;2023-06-10T03:44:16;15.98;;;6.32;;
72065;SDS011;59939;52.516;13.420;2023-06-10T03:47:20;19.40;;;7.20;;
72065;SDS011;59939;52.516;13.420;2023-06-10T03:50:24;16.70;;;6.63;;
72065;SDS011;59939;52.516;13.420;2023-06-10T03:53:30;19.48;;;6.45;;
72065;SDS011;59939;52.516;13.420;2023-06-10T03:56:34;20.38;;;7.53;;
72065;SDS011;59939;52.516;13.420;2023-06-10T03:59:39;17.88;;;6.85;;
72065;SDS011;59939;52.516;13.420;2023-06-10T04:02:43;18.67;;;7.25;;
72065;SDS011;59939;52.516;13.420;2023-06-10T04:06:05;19.45;;;7.07;;
72065;SDS011;59939;52.516;13.420;2023-06-10T04:09:10;23.48;;;7.60;;
72065;SDS011;59939;52.516;13.420;2023-06-10T04:12:15;19.17;;;6.97;;
72065;SDS011;59939;52.516;13.420;2023-06-10T04:15:20;18.98;;;7.32;;
72065;SDS011;59939;52.516;13.420;2023-06-10T04:18:25;18.20;;;6.55;;
72065;SDS011;59939;52.516;13.420;2023-06-10T04:21:32;23.60;;;6.68;;
72065;SDS011;59939;52.516;13.420;2023-06-10T04:24:36;18.83;;;7.40;;
72065;SDS011;59939;52.516;13.420;2023-06-10T04:27:40;21.20;;;6.88;;
72065;SDS011;59939;52.516;13.420;2023-06-10T04:30:44;20.55;;;7.18;;
72065;SDS011;59939;52.516;13.420;2023-06-10T04:33:50;17.17;;;6.82;;
72065;SDS011;59939;52.516;13.420;2023-06-10T04:36:54;18.27;;;6.43;;
72065;SDS011;59939;52.516;13.420;2023-06-10T04:39:58;24.38;;;7.50;;
72065;SDS011;59939;52.516;13.420;2023-06-10T04:43:11;19.23;;;7.40;;
72065;SDS011;59939;52.516;13.420;2023-06-10T04:46:17;19.10;;;6.97;;
72065;SDS011;59939;52.516;13.420;2023-06-10T04:49:21;20.25;;;7.35;;
72065;SDS011;59939;52.516;13.420;2023-06-10T04:52:25;20.25;;;7.05;;
72065;SDS011;59939;52.516;13.420;2023-06-10T04:55:29;17.67;;;7.15;;
72065;SDS011;59939;52.516;13.420;2023-06-10T04:58:33;16.92;;;7.75;;
72065;SDS011;59939;52.516;13.420;2023-06-10T05:01:38;21.15;;;7.00;;
72065;SDS011;59939;52.516;13.420;2023-06-10T05:04:42;23.05;;;8.32;;
72065;SDS011;59939;52.516;13.420;2023-06-10T05:07:47;19.13;;;6.75;;
72065;SDS011;59939;52.516;13.420;2023-06-10T05:10:53;16.55;;;7.20;;
72065;SDS011;59939;52.516;13.420;2023-06-10T05:13:57;18.67;;;7.22;;
72065;SDS011;59939;52.516;13.420;2023-06-10T05:17:05;20.92;;;6.95;;
72065;SDS011;59939;52.516;13.420;2023-06-10T05:20:10;16.00;;;6.97;;
72065;SDS011;59939;52.516;13.420;2023-06-10T05:23:14;18.42;;;6.32;;
72065;SDS011;59939;52.516;13.420;2023-06-10T05:26:20;16.50;;;7.07;;
72065;SDS011;59939;52.516;13.420;2023-06-10T05:29:32;18.33;;;6.80;;
72065;SDS011;59939;52.516;13.420;2023-06-10T05:32:38;18.27;;;7.15;;
72065;SDS011;59939;52.516;13.420;2023-06-10T05:35:42;17.10;;;6.65;;
72065;SDS011;59939;52.516;13.420;2023-06-10T05:38:48;16.73;;;6.55;;
72065;SDS011;59939;52.516;13.420;2023-06-10T05:41:52;15.63;;;6.40;;
72065;SDS011;59939;52.516;13.420;2023-06-10T05:44:57;17.38;;;6.75;;
72065;SDS011;59939;52.516;13.420;2023-06-10T05:48:03;18.08;;;6.60;;
72065;SDS011;59939;52.516;13.420;2023-06-10T05:51:09;16.73;;;6.18;;
72065;SDS011;59939;52.516;13.420;2023-06-10T05:54:14;17.52;;;6.22;;
72065;SDS011;59939;52.516;13.420;2023-06-10T05:57:19;19.38;;;6.75;;
72065;SDS011;59939;52.516;13.420;2023-06-10T06:00:24;17.38;;;6.88;;
72065;SDS011;59939;52.516;13.420;2023-06-10T06:03:28;16.80;;;6.15;;
72065;SDS011;59939;52.516;13.420;2023-06-10T06:06:35;15.63;;;6.78;;
72065;SDS011;59939;52.516;13.420;2023-06-10T06:13:08;14.75;;;6.07;;
72065;SDS011;59939;52.516;13.420;2023-06-10T06:16:14;17.55;;;6.75;;
72065;SDS011;59939;52.516;13.420;2023-06-10T06:19:19;19.25;;;7.07;;
72065;SDS011;59939;52.516;13.420;2023-06-10T06:22:23;17.80;;;6.80;;
72065;SDS011;59939;52.516;13.420;2023-06-10T06:25:29;15.15;;;6.60;;
72065;SDS011;59939;52.516;13.420;2023-06-10T06:28:34;18.27;;;6.97;;
72065;SDS011;59939;52.516;13.420;2023-06-10T06:31:47;18.70;;;6.55;;
72065;SDS011;59939;52.516;13.420;2023-06-10T06:34:51;14.52;;;6.47;;
72065;SDS011;59939;52.516;13.420;2023-06-10T06:37:57;15.95;;;6.68;;
72065;SDS011;59939;52.516;13.420;2023-06-10T06:41:06;18.63;;;6.70;;
72065;SDS011;59939;52.516;13.420;2023-06-10T06:44:23;17.27;;;7.05;;
72065;SDS011;59939;52.516;13.420;2023-06-10T06:47:29;17.35;;;6.93;;
72065;SDS011;59939;52.516;13.420;2023-06-10T06:50:34;18.92;;;6.70;;
72065;SDS011;59939;52.516;13.420;2023-06-10T06:53:38;14.50;;;5.82;;
72065;SDS011;59939;52.516;13.420;2023-06-10T06:56:48;20.20;;;7.22;;
72065;SDS011;59939;52.516;13.420;2023-06-10T06:59:52;18.60;;;7.28;;
72065;SDS011;59939;52.516;13.420;2023-06-10T07:02:56;13.02;;;6.15;;
72065;SDS011;59939;52.516;13.420;2023-06-10T07:09:31;20.35;;;7.28;;
72065;SDS011;59939;52.516;13.420;2023-06-10T07:12:35;16.35;;;6.35;;
72065;SDS011;59939;52.516;13.420;2023-06-10T07:15:40;17.10;;;7.00;;
72065;SDS011;59939;52.516;13.420;2023-06-10T07:18:44;18.10;;;6.90;;
72065;SDS011;59939;52.516;13.420;2023-06-10T07:21:48;16.63;;;7.07;;
72065;SDS011;59939;52.516;13.420;2023-06-10T07:25:01;19.52;;;6.63;;
72065;SDS011;59939;52.516;13.420;2023-06-10T07:28:05;15.52;;;6.50;;
72065;SDS011;59939;52.516;13.420;2023-06-10T07:31:23;19.95;;;6.90;;
72065;SDS011;59939;52.516;13.420;2023-06-10T07:34:29;17.23;;;6.05;;
72065;SDS011;59939;52.516;13.420;2023-06-10T07:37:35;15.63;;;6.35;;
72065;SDS011;59939;52.516;13.420;2023-06-10T07:40:40;16.83;;;6.63;;
72065;SDS011;59939;52.516;13.420;2023-06-10T07:43:44;13.45;;;6.05;;
72065;SDS011;59939;52.516;13.420;2023-06-10T07:46:48;18.02;;;7.15;;
72065;SDS011;59939;52.516;13.420;2023-06-10T07:49:54;17.38;;;6.78;;
72065;SDS011;59939;52.516;13.420;2023-06-10T07:52:59;19.55;;;7.38;;
72065;SDS011;59939;52.516;13.420;2023-06-10T07:56:05;18.73;;;6.82;;
72065;SDS011;59939;52.516;13.420;2023-06-10T07:59:10;14.02;;;6.70;;
72065;SDS011;59939;52.516;13.420;2023-06-10T08:02:14;16.52;;;7.30;;
72065;SDS011;59939;52.516;13.420;2023-06-10T08:05:18;15.32;;;6.70;;
72065;SDS011;59939;52.516;13.420;2023-06-10T08:08:22;20.52;;;7.45;;
72065;SDS011;59939;52.516;13.420;2023-06-10T08:11:28;20.15;;;8.98;;
72065;SDS011;59939;52.516;13.420;2023-06-10T08:14:33;21.02;;;8.77;;
72065;SDS011;59939;52.516;13.420;2023-06-10T08:17:39;13.82;;;6.97;;
72065;SDS011;59939;52.516;13.420;2023-06-10T08:20:43;17.25;;;7.97;;
72065;SDS011;59939;52.516;13.420;2023-06-10T08:23:47;15.20;;;7.15;;
72065;SDS011;59939;52.516;13.420;2023-06-10T08:26:52;17.05;;;7.72;;
72065;SDS011;59939;52.516;13.420;2023-06-10T08:29:57;16.80;;;7.85;;
72065;SDS011;59939;52.516;13.420;2023-06-10T08:33:05;17.52;;;6.60;;
72065;SDS011;59939;52.516;13.420;2023-06-10T08:36:11;13.98;;;6.78;;
72065;SDS011;59939;52.516;13.420;2023-06-10T08:39:16;18.10;;;8.70;;
72065;SDS011;59939;52.516;13.420;2023-06-10T08:42:22;17.23;;;7.60;;
72065;SDS011;59939;52.516;13.420;2023-06-10T08:45:29;18.05;;;7.72;;
72065;SDS011;59939;52.516;13.420;2023-06-10T08:48:43;22.63;;;11.00;;
72065;SDS011;59939;52.516;13.420;2023-06-10T08:51:59;23.67;;;10.18;;
72065;SDS011;59939;52.516;13.420;2023-06-10T08:55:06;19.70;;;9.18;;
72065;SDS011;59939;52.516;13.420;2023-06-10T08:58:13;19.33;;;8.30;;
72065;SDS011;59939;52.516;13.420;2023-06-10T09:01:18;24.00;;;13.13;;
72065;SDS011;59939;52.516;13.420;2023-06-10T09:04:30;24.83;;;10.90;;
72065;SDS011;59939;52.516;13.420;2023-06-10T09:07:34;19.20;;;9.40;;
72065;SDS011;59939;52.516;13.420;2023-06-10T09:10:39;16.27;;;8.02;;
72065;SDS011;59939;52.516;13.420;2023-06-10T09:13:44;17.58;;;7.30;;
72065;SDS011;59939;52.516;13.420;2023-06-10T09:16:48;18.70;;;6.97;;
72065;SDS011;59939;52.516;13.420;2023-06-10T09:19:52;15.70;;;7.55;;
72065;SDS011;59939;52.516;13.420;2023-06-10T09:22:59;15.18;;;7.30;;
72065;SDS011;59939;52.516;13.420;2023-06-10T09:26:08;19.08;;;8.40;;
72065;SDS011;59939;52.516;13.420;2023-06-10T09:29:13;17.73;;;8.90;;
72065;SDS011;59939;52.516;13.420;2023-06-10T09:32:18;16.08;;;7.90;;
72065;SDS011;59939;52.516;13.420;2023-06-10T09:35:23;18.40;;;8.90;;
72065;SDS011;59939;52.516;13.420;2023-06-10T09:38:31;16.48;;;6.80;;
72065;SDS011;59939;52.516;13.420;2023-06-10T09:41:39;19.85;;;7.95;;
72065;SDS011;59939;52.516;13.420;2023-06-10T09:44:49;15.60;;;7.25;;
72065;SDS011;59939;52.516;13.420;2023-06-10T09:47:53;16.17;;;6.85;;
72065;SDS011;59939;52.516;13.420;2023-06-10T09:50:57;16.15;;;7.30;;
72065;SDS011;59939;52.516;13.420;2023-06-10T09:54:02;15.90;;;7.18;;
72065;SDS011;59939;52.516;13.420;2023-06-10T09:57:08;16.17;;;7.10;;
72065;SDS011;59939;52.516;13.420;2023-06-10T10:00:15;17.58;;;8.20;;
72065;SDS011;59939;52.516;13.420;2023-06-10T10:03:23;15.93;;;6.82;;
72065;SDS011;59939;52.516;13.420;2023-06-10T10:06:28;23.02;;;7.93;;
72065;SDS011;59939;52.516;13.420;2023-06-10T10:09:35;16.52;;;7.63;;
72065;SDS011;59939;52.516;13.420;2023-06-10T10:12:42;18.27;;;7.40;;
72065;SDS011;59939;52.516;13.420;2023-06-10T10:15:46;18.77;;;7.72;;
72065;SDS011;59939;52.516;13.420;2023-06-10T10:18:52;16.05;;;6.80;;
72065;SDS011;59939;52.516;13.420;2023-06-10T10:22:01;16.45;;;7.05;;
72065;SDS011;59939;52.516;13.420;2023-06-10T10:25:11;15.90;;;6.90;;
72065;SDS011;59939;52.516;13.420;2023-06-10T10:28:16;14.95;;;6.53;;
72065;SDS011;59939;52.516;13.420;2023-06-10T10:31:23;11.98;;;5.70;;
72065;SDS011;59939;52.516;13.420;2023-06-10T10:37:54;12.05;;;5.13;;
72065;SDS011;59939;52.516;13.420;2023-06-10T10:41:01;11.50;;;4.97;;
72065;SDS011;59939;52.516;13.420;2023-06-10T10:44:13;11.23;;;5.20;;
72065;SDS011;59939;52.516;13.420;2023-06-10T10:47:18;9.23;;;4.35;;
72065;SDS011;59939;52.516;13.420;2023-06-10T10:50:25;12.60;;;4.90;;
72065;SDS011;59939;52.516;13.420;2023-06-10T10:53:39;11.15;;;4.80;;
72065;SDS011;59939;52.516;13.420;2023-06-10T11:03:43;13.20;;;5.50;;
72065;SDS011;59939;52.516;13.420;2023-06-10T11:06:53;11.38;;;4.93;;
72065;SDS011;59939;52.516;13.420;2023-06-10T11:10:12;10.10;;;4.47;;
72065;SDS011;59939;52.516;13.420;2023-06-10T11:13:18;11.48;;;4.50;;
72065;SDS011;59939;52.516;13.420;2023-06-10T11:16:22;11.57;;;4.47;;
72065;SDS011;59939;52.516;13.420;2023-06-10T11:22:58;11.52;;;4.68;;
72065;SDS011;59939;52.516;13.420;2023-06-10T11:29:21;10.75;;;4.80;;
72065;SDS011;59939;52.516;13.420;2023-06-10T11:32:29;10.70;;;5.20;;
72065;SDS011;59939;52.516;13.420;2023-06-10T11:35:35;11.38;;;4.80;;
72065;SDS011;59939;52.516;13.420;2023-06-10T11:38:40;12.95;;;5.75;;
72065;SDS011;59939;52.516;13.420;2023-06-10T11:41:45;10.02;;;4.45;;
72065;SDS011;59939;52.516;13.420;2023-06-10T11:44:58;9.18;;;4.18;;
72065;SDS011;59939;52.516;13.420;2023-06-10T11:48:03;11.05;;;4.97;;
72065;SDS011;59939;52.516;13.420;2023-06-10T11:51:11;10.30;;;4.90;;
72065;SDS011;59939;52.516;13.420;2023-06-10T11:54:16;14.23;;;6.38;;
72065;SDS011;59939;52.516;13.420;2023-06-10T11:57:22;12.55;;;5.97;;
72065;SDS011;59939;52.516;13.420;2023-06-10T12:00:27;14.82;;;6.03;;
72065;SDS011;59939;52.516;13.420;2023-06-10T12:03:38;13.43;;;6.30;;
72065;SDS011;59939;52.516;13.420;2023-06-10T12:06:49;20.70;;;9.75;;
72065;SDS011;59939;52.516;13.420;2023-06-10T12:09:59;14.20;;;7.13;;
72065;SDS011;59939;52.516;13.420;2023-06-10T12:13:11;13.65;;;7.00;;
72065;SDS011;59939;52.516;13.420;2023-06-10T12:16:16;11.20;;;5.18;;
72065;SDS011;59939;52.516;13.420;2023-06-10T12:19:21;14.20;;;5.43;;
72065;SDS011;59939;52.516;13.420;2023-06-10T12:22:26;14.90;;;5.32;;
72065;SDS011;59939;52.516;13.420;2023-06-10T12:25:37;10.20;;;5.18;;
72065;SDS011;59939;52.516;13.420;2023-06-10T12:28:50;10.70;;;5.43;;
72065;SDS011;59939;52.516;13.420;2023-06-10T12:32:08;12.77;;;5.43;;
72065;SDS011;59939;52.516;13.420;2023-06-10T12:35:18;11.32;;;5.90;;
72065;SDS011;59939;52.516;13.420;2023-06-10T12:41:56;12.85;;;6.20;;
72065;SDS011;59939;52.516;13.420;2023-06-10T12:45:01;12.07;;;5.78;;
72065;SDS011;59939;52.516;13.420;2023-06-10T12:48:06;13.80;;;6.05;;
72065;SDS011;59939;52.516;13.420;2023-06-10T12:51:11;14.18;;;7.22;;
72065;SDS011;59939;52.516;13.420;2023-06-10T12:54:16;13.05;;;6.68;;
72065;SDS011;59939;52.516;13.420;2023-06-10T12:57:23;13.30;;;7.65;;
72065;SDS011;59939;52.516;13.420;2023-06-10T13:00:29;13.98;;;7.70;;
72065;SDS011;59939;52.516;13.420;2023-06-10T13:03:36;15.77;;;7.82;;
72065;SDS011;59939;52.516;13.420;2023-06-10T13:06:42;14.63;;;7.40;;
72065;SDS011;59939;52.516;13.420;2023-06-10T13:09:46;16.92;;;7.65;;
72065;SDS011;59939;52.516;13.420;2023-06-10T13:12:54;19.30;;;7.70;;
72065;SDS011;59939;52.516;13.420;2023-06-10T13:16:06;15.77;;;8.10;;
72065;SDS011;59939;52.516;13.420;2023-06-10T13:19:10;14.80;;;7.93;;
72065;SDS011;59939;52.516;13.420;2023-06-10T13:22:15;15.02;;;7.43;;
72065;SDS011;59939;52.516;13.420;2023-06-10T13:25:25;17.98;;;8.50;;
72065;SDS011;59939;52.516;13.420;2023-06-10T13:28:31;14.00;;;7.55;;
72065;SDS011;59939;52.516;13.420;2023-06-10T13:31:38;16.10;;;7.55;;
72065;SDS011;59939;52.516;13.420;2023-06-10T13:34:42;15.98;;;7.88;;
72065;SDS011;59939;52.516;13.420;2023-06-10T13:37:47;16.95;;;8.68;;
72065;SDS011;59939;52.516;13.420;2023-06-10T13:40:51;18.92;;;9.85;;
72065;SDS011;59939;52.516;13.420;2023-06-10T13:43:57;14.73;;;7.75;;
72065;SDS011;59939;52.516;13.420;2023-06-10T13:47:04;20.17;;;9.60;;
72065;SDS011;59939;52.516;13.420;2023-06-10T13:50:12;17.00;;;9.15;;
72065;SDS011;59939;52.516;13.420;2023-06-10T13:53:20;19.95;;;8.43;;
72065;SDS011;59939;52.516;13.420;2023-06-10T13:56:31;15.40;;;8.05;;
72065;SDS011;59939;52.516;13.420;2023-06-10T13:59:39;21.17;;;9.85;;
72065;SDS011;59939;52.516;13.420;2023-06-10T14:02:43;16.67;;;8.65;;
72065;SDS011;59939;52.516;13.420;2023-06-10T14:05:49;16.45;;;9.32;;
72065;SDS011;59939;52.516;13.420;2023-06-10T14:08:53;18.73;;;8.77;;
72065;SDS011;59939;52.516;13.420;2023-06-10T14:11:58;17.02;;;8.38;;
72065;SDS011;59939;52.516;13.420;2023-06-10T14:15:02;16.55;;;7.10;;
72065;SDS011;59939;52.516;13.420;2023-06-10T14:18:07;14.63;;;7.25;;
72065;SDS011;59939;52.516;13.420;2023-06-10T14:21:13;13.68;;;8.02;;
72065;SDS011;59939;52.516;13.420;2023-06-10T14:24:21;15.82;;;7.05;;
72065;SDS011;59939;52.516;13.420;2023-06-10T14:27:32;14.02;;;6.32;;
72065;SDS011;59939;52.516;13.420;2023-06-10T14:30:37;16.25;;;7.90;;
72065;SDS011;59939;52.516;13.420;2023-06-10T14:33:46;11.90;;;6.10;;
72065;SDS011;59939;52.516;13.420;2023-06-10T14:36:53;12.77;;;6.55;;
72065;SDS011;59939;52.516;13.420;2023-06-10T14:39:58;15.43;;;8.82;;
72065;SDS011;59939;52.516;13.420;2023-06-10T14:43:02;17.05;;;7.05;;
72065;SDS011;59939;52.516;13.420;2023-06-10T14:46:13;12.40;;;6.50;;
72065;SDS011;59939;52.516;13.420;2023-06-10T14:49:31;16.70;;;6.88;;
72065;SDS011;59939;52.516;13.420;2023-06-10T14:56:08;13.45;;;6.30;;
72065;SDS011;59939;52.516;13.420;2023-06-10T14:59:12;15.07;;;7.55;;
72065;SDS011;59939;52.516;13.420;2023-06-10T15:02:17;19.58;;;10.02;;
72065;SDS011;59939;52.516;13.420;2023-06-10T15:05:23;13.88;;;6.57;;
72065;SDS011;59939;52.516;13.420;2023-06-10T15:08:29;12.68;;;6.35;;
72065;SDS011;59939;52.516;13.420;2023-06-10T15:11:33;18.52;;;8.45;;
72065;SDS011;59939;52.516;13.420;2023-06-10T15:14:51;14.27;;;6.80;;
72065;SDS011;59939;52.516;13.420;2023-06-10T15:17:57;14.77;;;6.85;;
72065;SDS011;59939;52.516;13.420;2023-06-10T15:21:01;14.38;;;6.28;;
72065;SDS011;59939;52.516;13.420;2023-06-10T15:24:13;15.70;;;6.45;;
72065;SDS011;59939;52.516;13.420;2023-06-10T15:27:20;12.43;;;6.18;;
72065;SDS011;59939;52.516;13.420;2023-06-10T15:30:24;13.60;;;6.30;;
72065;SDS011;59939;52.516;13.420;2023-06-10T15:33:28;17.88;;;7.10;;
72065;SDS011;59939;52.516;13.420;2023-06-10T15:36:46;14.80;;;6.30;;
72065;SDS011;59939;52.516;13.420;2023-06-10T15:39:51;13.52;;;5.90;;
72065;SDS011;59939;52.516;13.420;2023-06-10T15:43:02;18.20;;;8.70;;
72065;SDS011;59939;52.516;13.420;2023-06-10T15:46:07;14.93;;;6.07;;
72065;SDS011;59939;52.516;13.420;2023-06-10T15:49:12;12.30;;;5.95;;
72065;SDS011;59939;52.516;13.420;2023-06-10T15:52:27;13.65;;;6.32;;
72065;SDS011;59939;52.516;13.420;2023-06-10T15:55:31;13.27;;;5.78;;
72065;SDS011;59939;52.516;13.420;2023-06-10T15:58:36;16.13;;;6.75;;
72065;SDS011;59939;52.516;13.420;2023-06-10T16:01:42;17.77;;;7.80;;
72065;SDS011;59939;52.516;13.420;2023-06-10T16:04:47;14.48;;;6.13;;
72065;SDS011;59939;52.516;13.420;2023-06-10T16:07:52;18.83;;;6.88;;
72065;SDS011;59939;52.516;13.420;2023-06-10T16:10:56;14.20;;;6.43;;
72065;SDS011;59939;52.516;13.420;2023-06-10T16:14:02;13.27;;;6.20;;
72065;SDS011;59939;52.516;13.420;2023-06-10T16:17:15;16.85;;;7.93;;
72065;SDS011;59939;52.516;13.420;2023-06-10T16:20:20;16.85;;;7.30;;
72065;SDS011;59939;52.516;13.420;2023-06-10T16:23:24;22.15;;;11.88;;
72065;SDS011;59939;52.516;13.420;2023-06-10T16:26:29;17.92;;;8.35;;
72065;SDS011;59939;52.516;13.420;2023-06-10T16:29:33;15.02;;;8.25;;
72065;SDS011;59939;52.516;13.420;2023-06-10T16:32:37;16.42;;;8.55;;
72065;SDS011;59939;52.516;13.420;2023-06-10T16:35:43;17.55;;;7.10;;
72065;SDS011;59939;52.516;13.420;2023-06-10T16:38:48;14.68;;;6.38;;
72065;SDS011;59939;52.516;13.420;2023-06-10T16:41:54;14.40;;;7.07;;
72065;SDS011;59939;52.516;13.420;2023-06-10T16:44:59;12.95;;;5.82;;
72065;SDS011;59939;52.516;13.420;2023-06-10T16:48:05;13.93;;;5.28;;
72065;SDS011;59939;52.516;13.420;2023-06-10T16:51:13;14.30;;;5.78;;
72065;SDS011;59939;52.516;13.420;2023-06-10T16:54:19;17.42;;;7.40;;
72065;SDS011;59939;52.516;13.420;2023-06-10T16:57:25;15.73;;;6.57;;
72065;SDS011;59939;52.516;13.420;2023-06-10T17:00:33;12.77;;;5.70;;
72065;SDS011;59939;52.516;13.420;2023-06-10T17:03:37;12.50;;;5.47;;
72065;SDS011;59939;52.516;13.420;2023-06-10T17:06:44;13.13;;;5.80;;
72065;SDS011;59939;52.516;13.420;2023-06-10T17:09:48;17.35;;;6.57;;
72065;SDS011;59939;52.516;13.420;2023-06-10T17:12:53;13.82;;;5.90;;
72065;SDS011;59939;52.516;13.420;2023-06-10T17:15:57;13.38;;;6.30;;
72065;SDS011;59939;52.516;13.420;2023-06-10T17:19:03;13.68;;;7.10;;
72065;SDS011;59939;52.516;13.420;2023-06-10T17:22:07;15.77;;;5.80;;
72065;SDS011;59939;52.516;13.420;2023-06-10T17:25:12;10.02;;;4.70;;
72065;SDS011;59939;52.516;13.420;2023-06-10T17:28:16;10.25;;;4.40;;
72065;SDS011;59939;52.516;13.420;2023-06-10T17:31:20;11.05;;;5.10;;
72065;SDS011;59939;52.516;13.420;2023-06-10T17:34:32;11.82;;;5.38;;
72065;SDS011;59939;52.516;13.420;2023-06-10T17:37:36;12.50;;;5.15;;
72065;SDS011;59939;52.516;13.420;2023-06-10T17:40:40;13.82;;;4.60;;
72065;SDS011;59939;52.516;13.420;2023-06-10T17:43:46;10.90;;;5.00;;
72065;SDS011;59939;52.516;13.420;2023-06-10T17:46:51;12.32;;;5.13;;
72065;SDS011;59939;52.516;13.420;2023-06-10T17:49:55;15.10;;;6.72;;
72065;SDS011;59939;52.516;13.420;2023-06-10T17:53:02;11.38;;;5.32;;
72065;SDS011;59939;52.516;13.420;2023-06-10T17:56:08;13.85;;;5.25;;
72065;SDS011;59939;52.516;13.420;2023-06-10T17:59:12;13.50;;;5.03;;
72065;SDS011;59939;52.516;13.420;2023-06-10T18:02:19;10.65;;;5.25;;
72065;SDS011;59939;52.516;13.420;2023-06-10T18:05:26;12.63;;;5.43;;
72065;SDS011;59939;52.516;13.420;2023-06-10T18:08:31;12.65;;;4.68;;
72065;SDS011;59939;52.516;13.420;2023-06-10T18:11:37;11.13;;;4.95;;
72065;SDS011;59939;52.516;13.420;2023-06-10T18:14:45;10.85;;;4.55;;
72065;SDS011;59939;52.516;13.420;2023-06-10T18:17:49;11.93;;;4.88;;
72065;SDS011;59939;52.516;13.420;2023-06-10T18:20:57;16.67;;;6.53;;
72065;SDS011;59939;52.516;13.420;2023-06-10T18:24:02;14.57;;;6.40;;
72065;SDS011;59939;52.516;13.420;2023-06-10T18:27:14;13.27;;;5.70;;
72065;SDS011;59939;52.516;13.420;2023-06-10T18:30:20;12.60;;;4.93;;
72065;SDS011;59939;52.516;13.420;2023-06-10T18:33:25;13.77;;;5.75;;
72065;SDS011;59939;52.516;13.420;2023-06-10T18:36:32;12.73;;;5.75;;
72065;SDS011;59939;52.516;13.420;2023-06-10T18:39:36;15.20;;;5.55;;
72065;SDS011;59939;52.516;13.420;2023-06-10T18:42:42;11.98;;;5.22;;